San Ildefonso, Spain
Current Conditions -  °F | °C
As of 5:00 PM on Monday 24 Nov 2014 (Local Time) from LEVS Reporting Station
Clear Clear  
Wind Chill: 63°   Ceiling: Unl
Heat Index: 63°   Visibility: 6mi
Dew Point: 50°   Wind: 2mph
Humidity: 63%   Direction: NA
Pressure: 30.03"   Gusts: NA
Location:  40.9°N, 4.01°W
Report Text: LEVS 241600Z VRB02KT CAVOK 17/10 Q1017
Loading
Personal Weather Stations






























Interactive Weather Map New forecast layout! Learn more

10-Day Weather Forecast

Advertisements
Track Severe Weather on mobile